Time;durP1;ratioP1;P1;durP2;ratioP2;P2;SDS_P1;SDS_P2;PMS_P1;PMS_P2;Temp;Humidity;BMP_temperature;BMP_pressure;BME280_temperature;BME280_humidity;BME280_pressure;Samples;Min_cycle;Max_cycle;Signal;HPM_P1;HPM_P2
2021/07/28 00:00:54;;;;;;;9.07;8.17;;;18.70;99.90;;;;;;5029904;28;20622;-84
2021/07/28 00:03:23;;;;;;;8.53;7.73;;;18.70;99.90;;;;;;5030869;28;20611;-84
2021/07/28 00:05:51;;;;;;;8.77;7.97;;;18.60;99.90;;;;;;5031000;28;20680;-84
2021/07/28 00:08:20;;;;;;;8.77;7.90;;;18.60;99.90;;;;;;5037098;28;20626;-84
2021/07/28 00:10:47;;;;;;;11.60;9.33;;;18.70;99.90;;;;;;5050657;28;20637;-84
2021/07/28 00:13:13;;;;;;;8.13;7.33;;;18.70;99.90;;;;;;5050644;28;20935;-84
2021/07/28 00:15:41;;;;;;;8.10;7.30;;;18.80;99.90;;;;;;5051009;28;21076;-84
2021/07/28 00:18:15;;;;;;;8.90;8.10;;;18.70;99.90;;;;;;5050851;28;20599;-84
2021/07/28 00:23:29;;;;;;;8.33;7.50;;;18.60;99.90;;;;;;5050325;28;20626;-84
2021/07/28 00:25:57;;;;;;;9.23;8.33;;;18.60;99.90;;;;;;5050664;28;20610;-84
2021/07/28 00:28:24;;;;;;;10.10;7.43;;;18.60;99.90;;;;;;5050576;28;21076;-84
2021/07/28 00:30:52;;;;;;;7.80;7.10;;;18.60;99.90;;;;;;5013850;28;20623;-83
2021/07/28 00:33:20;;;;;;;8.20;7.50;;;18.50;99.90;;;;;;5024899;28;20646;-84
2021/07/28 00:35:48;;;;;;;10.53;9.30;;;18.50;99.90;;;;;;5030509;28;20611;-84
2021/07/28 00:38:15;;;;;;;7.70;7.00;;;18.40;99.90;;;;;;5030522;28;20603;-84
2021/07/28 00:40:46;;;;;;;8.33;7.60;;;18.40;99.90;;;;;;5030554;28;20633;-84
2021/07/28 00:43:14;;;;;;;8.00;7.30;;;18.40;99.90;;;;;;5030523;28;20697;-84
2021/07/28 00:45:42;;;;;;;9.63;8.47;;;18.50;99.90;;;;;;5030414;28;21201;-84
2021/07/28 00:48:13;;;;;;;9.70;8.70;;;18.50;99.90;;;;;;5030527;28;20722;-84
2021/07/28 00:50:43;;;;;;;9.00;8.20;;;18.40;99.90;;;;;;5024851;28;20639;-84
2021/07/28 00:53:17;;;;;;;8.40;7.70;;;18.40;99.90;;;;;;5030080;28;20964;-84
2021/07/28 00:55:45;;;;;;;7.93;7.23;;;18.30;99.90;;;;;;5030655;28;20610;-84
2021/07/28 00:58:12;;;;;;;9.57;8.63;;;18.40;99.90;;;;;;5030701;28;20614;-84
2021/07/28 01:00:39;;;;;;;7.83;7.07;;;18.40;99.90;;;;;;5029807;28;21016;-84
2021/07/28 01:03:08;;;;;;;8.30;7.37;;;18.40;99.90;;;;;;5029852;28;20641;-84
2021/07/28 01:05:38;;;;;;;9.07;8.27;;;18.30;99.90;;;;;;5026261;28;20646;-84
2021/07/28 01:08:13;;;;;;;8.97;8.10;;;18.30;99.90;;;;;;5029574;28;20649;-84
2021/07/28 01:10:46;;;;;;;9.60;8.70;;;18.30;99.90;;;;;;5030190;28;20615;-84
2021/07/28 01:13:26;;;;;;;9.30;8.40;;;18.20;99.90;;;;;;5030128;28;20629;-84
2021/07/28 01:16:03;;;;;;;8.17;7.37;;;18.20;99.90;;;;;;5029761;28;20704;-84
2021/07/28 01:18:35;;;;;;;10.80;8.50;;;18.30;99.90;;;;;;5030341;28;20717;-84
2021/07/28 01:21:06;;;;;;;9.30;8.40;;;18.30;99.90;;;;;;5030773;28;20619;-84
2021/07/28 01:23:38;;;;;;;9.77;8.87;;;18.40;99.90;;;;;;5034349;28;20636;-83
2021/07/28 01:26:08;;;;;;;8.10;7.30;;;18.60;99.90;;;;;;5031384;28;21067;-83
2021/07/28 01:28:38;;;;;;;7.90;7.20;;;18.40;99.90;;;;;;5034155;28;20646;-84
2021/07/28 01:31:10;;;;;;;8.87;8.00;;;18.40;99.90;;;;;;5033902;28;20614;-83
2021/07/28 01:33:42;;;;;;;9.67;8.60;;;18.30;99.90;;;;;;5032084;28;20634;-84
2021/07/28 01:36:15;;;;;;;8.80;7.90;;;18.30;99.90;;;;;;5027705;28;20650;-84
2021/07/28 01:38:47;;;;;;;10.03;8.83;;;18.30;99.90;;;;;;5033234;28;20690;-84
2021/07/28 01:41:19;;;;;;;9.47;8.57;;;18.20;99.90;;;;;;5030842;28;20642;-84
2021/07/28 01:43:48;;;;;;;10.93;8.90;;;18.20;99.90;;;;;;5031675;28;20630;-84
2021/07/28 01:46:21;;;;;;;9.90;8.80;;;18.20;99.90;;;;;;5029961;28;21233;-84
2021/07/28 01:48:56;;;;;;;10.37;9.30;;;18.20;99.90;;;;;;5033939;28;21003;-84
2021/07/28 01:51:27;;;;;;;9.10;8.30;;;18.20;99.90;;;;;;5033097;28;21160;-84
2021/07/28 01:53:56;;;;;;;10.20;9.20;;;18.20;99.90;;;;;;5027865;28;20780;-84
2021/07/28 01:56:28;;;;;;;9.60;8.77;;;18.20;99.90;;;;;;5033654;28;20676;-84
2021/07/28 01:59:00;;;;;;;9.33;8.33;;;18.20;99.90;;;;;;5033682;28;20624;-84
2021/07/28 02:01:41;;;;;;;9.00;8.20;;;18.20;99.90;;;;;;5031726;28;20718;-84
2021/07/28 02:04:15;;;;;;;9.17;8.27;;;18.20;99.90;;;;;;5033433;28;20633;-84
2021/07/28 02:06:47;;;;;;;8.70;7.90;;;18.10;99.90;;;;;;5027914;28;20647;-84
2021/07/28 02:09:34;;;;;;;8.90;8.00;;;18.10;99.90;;;;;;5049549;28;20625;-84
2021/07/28 02:12:10;;;;;;;14.33;8.27;;;18.20;99.90;;;;;;5052760;28;20616;-84
2021/07/28 02:14:40;;;;;;;10.20;9.27;;;18.20;99.90;;;;;;5053365;28;20615;-84
2021/07/28 02:17:11;;;;;;;9.20;8.30;;;18.10;99.90;;;;;;5053251;28;20975;-84
2021/07/28 02:19:51;;;;;;;8.80;7.93;;;18.20;99.90;;;;;;5033881;28;20661;-84
2021/07/28 02:22:27;;;;;;;7.50;6.77;;;18.20;99.90;;;;;;5026789;28;21043;-84
2021/07/28 02:25:02;;;;;;;5.90;5.30;;;18.20;99.90;;;;;;5033030;28;20623;-84
2021/07/28 02:27:36;;;;;;;7.37;6.73;;;18.10;99.90;;;;;;5032979;28;20653;-84
2021/07/28 02:30:19;;;;;;;6.60;6.07;;;18.10;99.90;;;;;;5033389;28;20683;-84
2021/07/28 02:32:56;;;;;;;7.40;6.70;;;18.10;99.90;;;;;;5031950;28;20677;-84
2021/07/28 02:35:27;;;;;;;7.10;6.50;;;18.10;99.90;;;;;;5032814;28;20992;-84
2021/07/28 02:37:59;;;;;;;7.07;6.40;;;18.10;99.90;;;;;;5032812;28;20666;-84
2021/07/28 02:40:36;;;;;;;6.80;6.17;;;18.10;99.90;;;;;;5032759;28;20732;-84
2021/07/28 02:43:12;;;;;;;7.03;6.43;;;18.20;99.90;;;;;;5032178;28;20626;-84
2021/07/28 02:45:51;;;;;;;7.07;6.47;;;18.10;99.90;;;;;;5032784;28;20640;-84
2021/07/28 02:48:29;;;;;;;6.83;6.27;;;18.10;99.90;;;;;;5032717;28;20653;-84
2021/07/28 02:51:05;;;;;;;8.17;7.20;;;17.90;99.90;;;;;;5032326;28;20668;-84
2021/07/28 02:53:37;;;;;;;6.90;5.60;;;18.00;99.90;;;;;;5032075;28;20655;-84
2021/07/28 02:56:09;;;;;;;7.60;6.80;;;18.00;99.90;;;;;;5032680;28;20970;-85
2021/07/28 02:58:50;;;;;;;8.07;7.40;;;18.00;99.90;;;;;;5032827;28;20616;-85
2021/07/28 03:01:32;;;;;;;6.87;6.27;;;18.00;99.90;;;;;;5014436;28;20635;-84
2021/07/28 03:04:11;;;;;;;6.90;6.30;;;17.90;99.90;;;;;;5032259;28;20756;-84
2021/07/28 03:06:47;;;;;;;7.53;6.83;;;17.80;99.90;;;;;;5032480;28;20618;-84
2021/07/28 03:09:28;;;;;;;7.13;6.43;;;17.70;99.90;;;;;;5047892;28;20692;-84
2021/07/28 03:12:10;;;;;;;9.77;8.73;;;17.70;99.90;;;;;;5051966;28;21023;-84
2021/07/28 03:14:57;;;;;;;7.03;6.43;;;17.60;99.90;;;;;;5037163;28;20657;-84
2021/07/28 03:17:31;;;;;;;9.87;7.33;;;17.70;99.90;;;;;;5052262;28;20625;-85
2021/07/28 03:20:04;;;;;;;8.40;7.47;;;17.70;99.90;;;;;;5052160;28;21354;-84
2021/07/28 03:22:35;;;;;;;7.40;6.53;;;17.60;99.90;;;;;;5046200;28;21248;-84
2021/07/28 03:25:05;;;;;;;7.63;6.80;;;17.60;99.90;;;;;;5051667;28;20620;-84
2021/07/28 03:27:35;;;;;;;10.30;9.00;;;17.50;99.90;;;;;;5052231;28;20691;-84
2021/07/28 03:30:03;;;;;;;8.27;7.53;;;17.60;99.90;;;;;;5052114;28;20607;-84
2021/07/28 03:32:34;;;;;;;8.00;7.20;;;17.60;99.90;;;;;;5051618;28;20620;-83
2021/07/28 03:35:03;;;;;;;8.30;7.50;;;17.60;99.90;;;;;;5051876;28;20666;-84
2021/07/28 03:37:32;;;;;;;10.37;8.13;;;17.50;99.90;;;;;;5045956;28;20744;-84
2021/07/28 03:40:02;;;;;;;8.90;8.17;;;17.50;99.90;;;;;;5051474;28;20626;-84
2021/07/28 03:42:36;;;;;;;7.77;6.97;;;17.40;99.90;;;;;;5051152;28;20614;-84
2021/07/28 03:45:06;;;;;;;8.10;7.40;;;17.50;99.90;;;;;;5050902;28;21217;-84
2021/07/28 03:47:43;;;;;;;8.63;7.87;;;17.60;99.90;;;;;;5051779;28;21213;-84
2021/07/28 03:50:20;;;;;;;13.53;8.83;;;17.50;99.90;;;;;;5050371;28;21194;-83
2021/07/28 03:52:57;;;;;;;8.40;7.40;;;17.50;99.90;;;;;;5040409;28;21030;-84
2021/07/28 03:55:28;;;;;;;8.77;7.97;;;17.50;99.90;;;;;;5026640;28;20630;-84
2021/07/28 03:58:00;;;;;;;9.70;8.80;;;17.50;99.90;;;;;;5031520;28;20607;-84
2021/07/28 04:00:29;;;;;;;9.00;8.07;;;17.50;99.90;;;;;;5031485;28;21196;-84
2021/07/28 04:03:00;;;;;;;13.47;7.77;;;17.40;99.90;;;;;;5030841;28;21472;-84
2021/07/28 04:05:31;;;;;;;10.03;7.77;;;17.50;99.90;;;;;;5031550;28;21212;-84
2021/07/28 04:08:02;;;;;;;9.00;8.20;;;17.60;99.90;;;;;;5031526;28;20654;-84
2021/07/28 04:10:30;;;;;;;8.40;7.70;;;17.60;99.90;;;;;;5025798;28;20713;-84
2021/07/28 04:13:09;;;;;;;8.00;7.30;;;17.50;99.90;;;;;;5030583;28;20629;-85
2021/07/28 04:15:46;;;;;;;8.80;7.87;;;17.50;99.90;;;;;;5031231;28;20617;-84
2021/07/28 04:18:22;;;;;;;8.50;7.73;;;17.40;99.90;;;;;;5030980;28;20631;-84
2021/07/28 04:21:03;;;;;;;7.97;7.27;;;17.50;99.90;;;;;;5030846;28;20656;-84
2021/07/28 04:23:40;;;;;;;7.77;7.07;;;17.50;99.90;;;;;;5031328;28;20616;-84
2021/07/28 04:26:14;;;;;;;9.10;8.20;;;17.50;99.90;;;;;;5030720;28;20756;-84
2021/07/28 04:28:47;;;;;;;7.37;6.67;;;17.50;99.90;;;;;;5030739;28;20780;-84
2021/07/28 04:31:20;;;;;;;9.27;8.37;;;17.50;99.90;;;;;;5030760;28;20957;-84
2021/07/28 04:33:55;;;;;;;8.23;7.43;;;17.50;99.90;;;;;;5030918;28;20582;-84
2021/07/28 04:36:27;;;;;;;7.53;6.87;;;17.50;99.90;;;;;;5031515;28;20724;-84
2021/07/28 04:39:01;;;;;;;7.90;7.07;;;17.70;99.90;;;;;;5030859;28;20637;-84
2021/07/28 04:41:36;;;;;;;8.67;7.87;;;17.80;99.90;;;;;;5030218;28;20639;-84
2021/07/28 04:44:12;;;;;;;8.20;7.40;;;17.70;99.90;;;;;;5030471;28;20736;-84
2021/07/28 04:46:52;;;;;;;8.27;7.47;;;17.70;99.90;;;;;;5030778;28;21088;-84
2021/07/28 04:49:29;;;;;;;8.17;7.43;;;17.80;99.90;;;;;;5030599;28;20650;-84
2021/07/28 04:52:03;;;;;;;8.00;7.20;;;17.70;99.90;;;;;;5030170;28;21646;-84
2021/07/28 04:54:33;;;;;;;7.13;6.53;;;17.80;99.90;;;;;;5030338;28;20613;-83
2021/07/28 04:57:01;;;;;;;10.00;7.60;;;17.90;99.90;;;;;;5030444;28;21175;-84
2021/07/28 04:59:30;;;;;;;7.77;6.97;;;17.90;99.90;;;;;;5030488;28;20704;-84
2021/07/28 05:01:57;;;;;;;8.27;7.37;;;17.90;99.90;;;;;;5030039;28;20624;-83
2021/07/28 05:04:24;;;;;;;7.33;6.63;;;17.80;99.90;;;;;;5030565;28;20626;-83
2021/07/28 05:06:51;;;;;;;7.30;6.60;;;17.80;99.90;;;;;;5030666;28;20614;-83
2021/07/28 05:09:18;;;;;;;7.97;7.00;;;17.80;99.90;;;;;;5030093;28;20634;-83
2021/07/28 05:11:44;;;;;;;7.03;6.43;;;17.90;99.90;;;;;;5029799;28;20611;-84
2021/07/28 05:14:11;;;;;;;7.47;6.67;;;17.90;99.90;;;;;;5030660;28;21051;-83
2021/07/28 05:16:40;;;;;;;6.77;6.20;;;17.90;99.90;;;;;;5030486;28;20730;-83
2021/07/28 05:19:07;;;;;;;7.63;6.97;;;17.90;99.90;;;;;;5030431;28;20626;-83
2021/07/28 05:21:34;;;;;;;7.07;6.37;;;17.90;99.90;;;;;;5029652;28;20605;-83
2021/07/28 05:24:01;;;;;;;8.10;6.90;;;17.90;99.90;;;;;;5029272;28;20973;-83
2021/07/28 05:26:29;;;;;;;7.90;7.13;;;17.90;99.90;;;;;;5030255;28;20612;-83
2021/07/28 05:28:56;;;;;;;6.97;6.27;;;17.90;99.90;;;;;;5030106;28;20645;-84
2021/07/28 05:31:25;;;;;;;7.07;6.37;;;17.80;99.90;;;;;;5029682;28;20725;-84
2021/07/28 05:33:53;;;;;;;6.37;5.80;;;17.80;99.90;;;;;;5029369;28;20625;-83
2021/07/28 05:36:21;;;;;;;7.50;6.80;;;17.80;99.90;;;;;;5038631;28;20623;-83
2021/07/28 05:38:47;;;;;;;7.43;6.80;;;17.90;99.90;;;;;;5030114;28;20606;-82
2021/07/28 05:41:15;;;;;;;7.20;6.50;;;17.80;99.90;;;;;;5029221;28;20785;-83
2021/07/28 05:43:43;;;;;;;7.50;6.80;;;17.90;99.90;;;;;;5029974;28;20622;-83
2021/07/28 05:46:10;;;;;;;7.10;6.50;;;17.90;99.90;;;;;;5031523;28;20642;-83
2021/07/28 05:48:37;;;;;;;8.10;6.60;;;17.80;99.90;;;;;;5049652;28;20652;-83
2021/07/28 05:51:06;;;;;;;7.43;6.73;;;18.00;99.90;;;;;;5049493;28;20610;-83
2021/07/28 05:53:34;;;;;;;6.83;6.13;;;18.00;99.90;;;;;;5033619;28;20662;-83
2021/07/28 05:56:01;;;;;;;6.63;5.97;;;18.00;99.90;;;;;;5030269;28;20653;-83
2021/07/28 05:58:28;;;;;;;7.80;7.00;;;18.00;99.90;;;;;;5029952;28;20634;-83
2021/07/28 06:00:57;;;;;;;6.80;6.20;;;18.00;99.90;;;;;;5029566;28;20618;-83
2021/07/28 06:03:24;;;;;;;7.50;6.90;;;18.00;99.90;;;;;;5029360;28;20668;-83
2021/07/28 06:05:51;;;;;;;7.83;6.70;;;18.10;99.90;;;;;;5029646;28;20614;-83
2021/07/28 06:08:20;;;;;;;7.33;6.70;;;18.00;99.90;;;;;;5032457;28;21250;-84
2021/07/28 06:10:47;;;;;;;7.00;6.30;;;18.10;99.90;;;;;;5033185;28;20613;-83
2021/07/28 06:13:14;;;;;;;7.03;6.33;;;18.10;99.90;;;;;;5032719;28;20615;-83
2021/07/28 06:15:42;;;;;;;6.97;6.10;;;18.20;99.90;;;;;;5033160;28;20637;-83
2021/07/28 06:18:09;;;;;;;6.70;6.10;;;18.10;99.90;;;;;;5033012;28;20617;-83
2021/07/28 06:20:36;;;;;;;7.03;6.40;;;18.20;99.90;;;;;;5033527;28;20611;-85
2021/07/28 06:23:10;;;;;;;8.30;5.67;;;18.30;99.90;;;;;;5034416;28;20622;-84
2021/07/28 06:25:39;;;;;;;7.10;6.40;;;18.30;99.90;;;;;;5041390;28;20695;-84
2021/07/28 06:28:06;;;;;;;6.47;5.80;;;18.30;99.90;;;;;;5044837;28;20750;-84
2021/07/28 06:30:33;;;;;;;7.20;6.57;;;18.20;99.90;;;;;;5044879;28;20749;-84
2021/07/28 06:33:00;;;;;;;6.83;6.23;;;18.10;99.90;;;;;;5037058;28;20618;-84
2021/07/28 06:35:27;;;;;;;7.83;6.50;;;18.10;99.90;;;;;;5051695;28;20966;-84
2021/07/28 06:37:54;;;;;;;7.43;6.83;;;18.10;99.90;;;;;;5038789;28;20653;-84
2021/07/28 06:40:21;;;;;;;6.47;5.97;;;18.10;99.90;;;;;;5033056;28;20752;-84
2021/07/28 06:42:49;;;;;;;10.73;6.50;;;18.00;99.90;;;;;;5032522;28;20622;-85
2021/07/28 06:45:16;;;;;;;7.77;7.07;;;18.00;99.90;;;;;;5032748;28;20648;-85
2021/07/28 06:47:43;;;;;;;6.60;6.00;;;17.90;99.90;;;;;;5032888;28;20637;-85
2021/07/28 06:50:11;;;;;;;9.10;7.30;;;17.90;99.90;;;;;;5045810;28;20661;-86
2021/07/28 06:52:38;;;;;;;8.00;7.20;;;17.80;99.90;;;;;;5044323;28;20962;-86
2021/07/28 06:55:06;;;;;;;10.23;7.40;;;17.70;99.90;;;;;;5032588;28;20617;-86
2021/07/28 06:57:33;;;;;;;9.00;7.90;;;17.70;99.90;;;;;;5032059;28;20683;-86
2021/07/28 07:00:02;;;;;;;8.40;7.60;;;17.70;99.90;;;;;;5032568;28;20625;-86
2021/07/28 07:02:29;;;;;;;7.97;7.00;;;17.70;99.90;;;;;;5032581;28;21267;-86
2021/07/28 07:04:55;;;;;;;9.40;7.40;;;17.80;99.90;;;;;;5022288;28;20634;-86
2021/07/28 07:07:22;;;;;;;7.73;7.13;;;17.80;99.90;;;;;;5025609;28;20613;-85
2021/07/28 07:09:51;;;;;;;8.60;7.47;;;17.70;99.90;;;;;;5050890;28;20649;-85
2021/07/28 07:12:18;;;;;;;11.27;8.20;;;17.80;99.90;;;;;;5052286;28;20600;-85
2021/07/28 07:14:46;;;;;;;9.17;7.57;;;17.90;99.90;;;;;;5044102;28;20712;-85
2021/07/28 07:17:15;;;;;;;8.07;7.27;;;18.00;99.90;;;;;;5032526;28;20621;-85
2021/07/28 07:19:42;;;;;;;8.80;7.43;;;17.90;99.90;;;;;;5031358;28;20672;-85
2021/07/28 07:22:10;;;;;;;9.33;7.37;;;18.00;99.90;;;;;;5032138;28;20652;-84
2021/07/28 07:24:37;;;;;;;7.70;6.97;;;18.10;99.90;;;;;;5031578;28;20629;-84
2021/07/28 07:27:04;;;;;;;8.87;6.97;;;18.00;99.90;;;;;;5032411;28;20633;-84
2021/07/28 07:29:31;;;;;;;7.90;7.10;;;17.90;99.90;;;;;;5031802;28;20649;-84
2021/07/28 07:32:00;;;;;;;8.00;7.20;;;17.80;99.90;;;;;;5042002;28;20689;-84
2021/07/28 07:34:28;;;;;;;8.20;7.40;;;17.70;99.90;;;;;;5038220;28;20619;-85
2021/07/28 07:36:55;;;;;;;8.20;7.30;;;17.70;99.90;;;;;;5031253;28;20629;-84
2021/07/28 07:39:23;;;;;;;10.10;7.60;;;17.70;99.90;;;;;;5019874;28;21184;-84
2021/07/28 07:41:52;;;;;;;10.47;7.70;;;17.80;99.90;;;;;;5031167;28;21035;-84
2021/07/28 07:44:20;;;;;;;8.57;7.40;;;17.90;99.90;;;;;;5043011;28;20629;-84
2021/07/28 07:46:48;;;;;;;7.63;6.83;;;18.10;99.90;;;;;;5042059;28;20632;-83
2021/07/28 07:49:15;;;;;;;7.40;6.70;;;18.10;99.90;;;;;;5049716;28;21303;-84
2021/07/28 07:51:44;;;;;;;8.10;7.30;;;18.10;99.90;;;;;;5046315;28;20685;-84
2021/07/28 07:54:11;;;;;;;7.67;6.87;;;18.20;99.90;;;;;;5030494;28;21244;-83
2021/07/28 07:56:39;;;;;;;7.97;7.27;;;18.30;99.90;;;;;;5030480;28;20706;-83
2021/07/28 07:59:07;;;;;;;9.47;8.57;;;18.30;99.90;;;;;;5030431;28;20684;-83
2021/07/28 08:01:35;;;;;;;8.50;7.70;;;18.20;99.90;;;;;;5031041;28;21025;-83
2021/07/28 08:04:04;;;;;;;8.23;6.73;;;18.10;99.90;;;;;;5031075;28;20649;-84
2021/07/28 08:06:32;;;;;;;9.77;7.90;;;18.10;99.90;;;;;;5031312;28;20676;-83
2021/07/28 08:09:01;;;;;;;9.13;7.50;;;18.10;99.90;;;;;;5043245;28;20645;-83
2021/07/28 08:11:28;;;;;;;8.63;6.83;;;18.00;99.90;;;;;;5051083;28;20616;-83
2021/07/28 08:13:55;;;;;;;7.60;6.80;;;18.10;99.90;;;;;;5028866;28;21199;-83
2021/07/28 08:16:23;;;;;;;8.47;6.73;;;18.10;99.90;;;;;;5030801;28;20615;-84
2021/07/28 08:18:51;;;;;;;8.23;6.83;;;18.00;99.90;;;;;;5050676;28;21146;-83
2021/07/28 08:21:19;;;;;;;9.37;7.00;;;18.00;99.90;;;;;;5050946;28;20609;-83
2021/07/28 08:23:48;;;;;;;7.20;6.50;;;18.00;99.90;;;;;;5051041;28;20999;-83
2021/07/28 08:26:17;;;;;;;7.70;7.00;;;17.90;99.90;;;;;;5050914;28;21171;-83
2021/07/28 08:28:44;;;;;;;8.30;6.70;;;18.00;99.90;;;;;;5050536;28;20640;-83
2021/07/28 08:31:11;;;;;;;7.53;6.83;;;18.10;99.90;;;;;;5049781;28;20613;-83
2021/07/28 08:33:38;;;;;;;7.93;7.17;;;18.10;99.90;;;;;;5051011;28;20635;-84
2021/07/28 08:36:06;;;;;;;11.33;6.87;;;18.10;99.90;;;;;;5050778;28;20609;-82
2021/07/28 08:38:32;;;;;;;7.40;6.80;;;18.20;99.90;;;;;;5050891;28;21152;-83
2021/07/28 08:41:01;;;;;;;7.97;7.27;;;18.10;99.90;;;;;;5050512;28;20974;-83
2021/07/28 08:43:32;;;;;;;9.20;8.20;;;18.10;99.90;;;;;;5032548;28;20614;-83
2021/07/28 08:46:01;;;;;;;7.40;6.43;;;18.00;99.90;;;;;;5030613;28;20602;-83
2021/07/28 08:48:29;;;;;;;6.97;6.27;;;18.20;99.90;;;;;;5030910;28;20611;-84
2021/07/28 08:50:57;;;;;;;7.30;6.60;;;18.30;99.90;;;;;;5028398;28;20680;-83
2021/07/28 08:53:24;;;;;;;9.20;7.17;;;18.30;99.90;;;;;;5022876;28;20620;-83
2021/07/28 08:55:53;;;;;;;7.40;6.70;;;18.40;99.90;;;;;;5030602;28;20630;-83
2021/07/28 08:58:22;;;;;;;7.83;7.13;;;18.50;99.90;;;;;;5030443;28;20992;-83
2021/07/28 09:00:52;;;;;;;9.27;7.17;;;18.60;99.90;;;;;;5030520;28;20638;-83
2021/07/28 09:03:20;;;;;;;8.20;6.10;;;18.70;99.90;;;;;;5030295;28;20614;-84
2021/07/28 09:05:48;;;;;;;7.13;6.43;;;18.80;99.90;;;;;;5030147;28;20622;-84
2021/07/28 09:08:23;;;;;;;7.57;5.90;;;18.80;99.90;;;;;;5030314;28;20611;-84
2021/07/28 09:10:51;;;;;;;6.70;6.10;;;18.90;99.90;;;;;;5029789;28;20692;-84
2021/07/28 09:13:33;;;;;;;8.63;5.70;;;19.00;99.90;;;;;;5030328;28;21191;-84
2021/07/28 09:16:03;;;;;;;6.10;5.50;;;19.10;99.90;;;;;;5030693;28;20718;-84
2021/07/28 09:18:35;;;;;;;6.30;5.60;;;19.20;99.90;;;;;;5030071;28;20619;-83
2021/07/28 09:21:07;;;;;;;5.57;5.10;;;19.20;99.90;;;;;;5030218;28;20611;-83
2021/07/28 09:23:39;;;;;;;10.50;5.73;;;19.30;99.90;;;;;;5030382;28;20607;-84
2021/07/28 09:26:38;;;;;;;6.20;5.60;;;19.40;99.90;;;;;;5027825;28;20651;-83
2021/07/28 09:29:08;;;;;;;6.03;5.53;;;19.60;99.90;;;;;;5030403;28;20614;-85
2021/07/28 09:31:38;;;;;;;5.60;5.10;;;19.70;99.90;;;;;;5030152;28;20989;-85
2021/07/28 09:34:33;;;;;;;5.50;5.00;;;19.80;99.90;;;;;;5049609;28;21029;-84
2021/07/28 09:37:01;;;;;;;5.50;5.00;;;20.00;99.90;;;;;;5030533;28;21127;-84
2021/07/28 09:39:30;;;;;;;8.87;5.73;;;19.90;99.90;;;;;;5028779;28;20619;-84
2021/07/28 09:41:59;;;;;;;6.30;5.73;;;19.80;99.90;;;;;;5029283;28;20626;-85
2021/07/28 09:44:28;;;;;;;7.33;6.10;;;19.80;99.90;;;;;;5036894;28;20626;-85
2021/07/28 09:47:08;;;;;;;6.00;5.40;;;20.00;99.90;;;;;;5054175;28;20949;-85
2021/07/28 09:49:36;;;;;;;5.93;5.43;;;20.00;99.90;;;;;;5053698;28;20653;-85
2021/07/28 09:52:25;;;;;;;6.03;5.43;;;20.10;99.90;;;;;;5050404;28;20715;-84
2021/07/28 09:54:53;;;;;;;6.20;5.60;;;20.10;99.90;;;;;;5033949;28;20611;-84
2021/07/28 09:57:23;;;;;;;7.03;5.67;;;20.20;99.90;;;;;;5033674;28;20631;-85
2021/07/28 09:59:53;;;;;;;6.60;6.00;;;20.40;99.90;;;;;;5033668;28;20793;-85
2021/07/28 10:02:22;;;;;;;6.23;5.50;;;20.50;99.90;;;;;;5033701;28;20615;-85
2021/07/28 10:04:51;;;;;;;5.93;5.33;;;20.60;99.90;;;;;;5033638;28;20733;-85
2021/07/28 10:07:19;;;;;;;5.17;4.77;;;20.80;99.90;;;;;;5033396;28;20626;-85
2021/07/28 10:09:52;;;;;;;5.13;4.70;;;20.90;99.90;;;;;;5046495;28;20772;-88
2021/07/28 10:12:21;;;;;;;5.50;5.10;;;21.10;99.90;;;;;;5033493;28;20969;-86
2021/07/28 10:14:53;;;;;;;6.20;5.60;;;21.30;99.90;;;;;;5033164;28;20624;-85
2021/07/28 10:17:21;;;;;;;5.50;5.03;;;21.10;99.00;;;;;;5033325;28;20646;-85
2021/07/28 10:19:50;;;;;;;8.97;6.07;;;21.20;99.90;;;;;;5033423;28;20609;-86
2021/07/28 10:22:18;;;;;;;5.27;4.83;;;21.30;99.30;;;;;;5032795;28;20613;-85
2021/07/28 10:24:54;;;;;;;4.83;4.33;;;21.30;99.40;;;;;;5033510;28;20758;-86
2021/07/28 10:27:23;;;;;;;5.33;4.83;;;21.30;99.50;;;;;;5029690;28;20626;-85
2021/07/28 10:29:51;;;;;;;6.20;5.70;;;21.40;99.00;;;;;;5038566;28;20656;-84
2021/07/28 10:32:32;;;;;;;6.50;5.90;;;21.10;99.00;;;;;;5032686;28;20720;-84
2021/07/28 10:35:21;;;;;;;8.20;5.13;;;21.10;99.30;;;;;;5032832;28;20675;-83
2021/07/28 10:37:49;;;;;;;5.27;4.60;;;20.90;98.20;;;;;;5024566;28;20628;-82
2021/07/28 10:40:32;;;;;;;5.07;4.67;;;20.80;99.60;;;;;;5032589;28;20643;-84
2021/07/28 10:43:04;;;;;;;5.27;4.70;;;20.80;99.20;;;;;;5029862;28;20626;-84
2021/07/28 10:45:56;;;;;;;5.77;5.17;;;20.80;98.70;;;;;;5032084;28;20613;-84
2021/07/28 10:48:56;;;;;;;5.33;4.80;;;20.70;99.60;;;;;;5042010;28;20613;-85
2021/07/28 10:51:55;;;;;;;5.40;4.90;;;20.70;99.90;;;;;;4970508;28;20655;-85
2021/07/28 10:54:59;;;;;;;7.30;5.37;;;21.00;99.80;;;;;;4931872;29;20647;-85
2021/07/28 10:58:06;;;;;;;4.53;4.20;;;21.40;99.30;;;;;;5004663;28;20641;-84
2021/07/28 11:00:59;;;;;;;5.50;4.97;;;21.50;98.90;;;;;;5028355;28;20614;-86
2021/07/28 11:03:37;;;;;;;5.13;4.73;;;21.60;98.50;;;;;;5031028;28;20668;-86
2021/07/28 11:06:22;;;;;;;6.50;5.90;;;21.70;97.50;;;;;;5031275;28;20929;-86
2021/07/28 11:08:49;;;;;;;5.50;5.10;;;21.70;97.20;;;;;;5041589;28;20621;-85
2021/07/28 11:11:28;;;;;;;4.63;4.23;;;21.70;97.70;;;;;;5051173;28;21048;-84
2021/07/28 11:14:00;;;;;;;4.43;4.03;;;21.70;97.90;;;;;;5050937;28;21175;-85
2021/07/28 11:16:29;;;;;;;5.90;5.30;;;21.90;96.90;;;;;;5051425;28;21024;-86
2021/07/28 11:18:56;;;;;;;5.27;4.87;;;22.10;97.00;;;;;;5050845;28;21202;-85
2021/07/28 11:21:26;;;;;;;7.60;5.20;;;22.30;97.30;;;;;;5031410;28;20626;-84
2021/07/28 11:23:55;;;;;;;5.97;5.47;;;22.40;95.90;;;;;;5031105;28;20655;-86
2021/07/28 11:26:25;;;;;;;4.67;4.27;;;22.60;96.80;;;;;;5013210;28;20631;-85
2021/07/28 11:28:55;;;;;;;5.20;4.70;;;23.10;96.20;;;;;;5026951;28;20623;-85
2021/07/28 11:31:29;;;;;;;8.30;5.20;;;23.20;95.20;;;;;;5012224;28;20686;-86
2021/07/28 11:34:07;;;;;;;6.03;4.73;;;23.40;94.90;;;;;;5019803;28;21180;-87
2021/07/28 11:36:35;;;;;;;6.03;5.03;;;23.60;94.80;;;;;;5012295;28;20780;-87
2021/07/28 11:39:20;;;;;;;4.80;4.40;;;24.10;94.40;;;;;;5027221;28;21253;-86
2021/07/28 11:41:48;;;;;;;6.27;5.67;;;24.50;93.50;;;;;;4972271;28;1124093;-86
2021/07/28 11:44:16;;;;;;;4.63;4.23;;;24.40;92.60;;;;;;5020608;28;20201;-84
2021/07/28 11:46:54;;;;;;;5.40;4.90;;;24.50;91.30;;;;;;5031491;28;20669;-86
2021/07/28 11:49:26;;;;;;;4.77;4.33;;;24.20;93.10;;;;;;5013425;28;20662;-85
2021/07/28 11:51:59;;;;;;;6.00;4.43;;;25.00;92.20;;;;;;5028440;28;20647;-85
2021/07/28 11:54:29;;;;;;;4.90;4.23;;;25.60;92.50;;;;;;5014959;28;20687;-85
2021/07/28 11:56:57;;;;;;;4.70;4.27;;;25.80;89.10;;;;;;5011983;28;20632;-85
2021/07/28 11:59:28;;;;;;;5.70;4.37;;;25.60;89.30;;;;;;5011912;28;20664;-86
2021/07/28 12:01:57;;;;;;;4.67;4.27;;;26.10;88.20;;;;;;5021700;28;20619;-86
2021/07/28 12:04:26;;;;;;;5.33;4.63;;;27.10;86.60;;;;;;5025911;28;20628;-87
2021/07/28 12:07:09;;;;;;;4.43;4.03;;;27.90;84.20;;;;;;5011296;28;20650;-87
2021/07/28 12:09:36;;;;;;;3.50;3.20;;;28.00;79.90;;;;;;5023195;28;20646;-87
2021/07/28 12:12:05;;;;;;;4.07;3.73;;;28.70;78.70;;;;;;5029948;28;20681;-85
2021/07/28 12:14:39;;;;;;;4.10;3.80;;;29.70;76.70;;;;;;5024071;28;20621;-88
2021/07/28 12:17:21;;;;;;;5.10;4.20;;;30.30;71.20;;;;;;5030956;28;20602;-88
2021/07/28 12:19:55;;;;;;;4.20;3.80;;;30.80;69.10;;;;;;5021233;28;20640;-85
2021/07/28 12:22:31;;;;;;;4.20;3.90;;;31.50;65.20;;;;;;5011177;28;20616;-86
2021/07/28 12:25:19;;;;;;;4.07;3.77;;;30.90;59.70;;;;;;5018421;28;20651;-84
2021/07/28 12:28:07;;;;;;;4.07;3.77;;;31.10;61.60;;;;;;5025152;28;20718;-86
2021/07/28 12:30:36;;;;;;;4.40;4.00;;;29.50;62.90;;;;;;5031028;28;20654;-87
2021/07/28 12:33:10;;;;;;;5.00;4.60;;;28.70;63.90;;;;;;5030359;28;20944;-87
2021/07/28 12:35:50;;;;;;;5.20;4.07;;;27.90;66.50;;;;;;5031140;28;20968;-87
2021/07/28 12:38:20;;;;;;;5.23;4.37;;;27.70;71.50;;;;;;5027572;28;20634;-86
2021/07/28 12:40:50;;;;;;;4.50;4.20;;;28.50;69.90;;;;;;5041210;28;20622;-88
2021/07/28 12:43:19;;;;;;;4.00;3.70;;;29.20;63.50;;;;;;5050220;28;20625;-85
2021/07/28 12:45:53;;;;;;;4.50;4.20;;;28.30;65.10;;;;;;5043826;28;20722;-86
2021/07/28 12:48:22;;;;;;;4.10;3.80;;;27.30;67.30;;;;;;5030860;28;20718;-86
2021/07/28 12:50:50;;;;;;;4.50;4.13;;;26.80;71.00;;;;;;5030651;28;20670;-87
2021/07/28 12:53:17;;;;;;;4.57;4.17;;;26.60;73.70;;;;;;5030297;28;20661;-86
2021/07/28 12:55:44;;;;;;;4.70;4.30;;;28.10;73.00;;;;;;5025086;28;20689;-87
2021/07/28 12:58:11;;;;;;;4.77;4.30;;;29.80;67.50;;;;;;5030514;28;20673;-86
2021/07/28 13:00:39;;;;;;;4.90;4.50;;;30.90;62.40;;;;;;5016932;28;20616;-86
2021/07/28 13:03:07;;;;;;;4.20;3.90;;;32.00;59.50;;;;;;5011683;28;20619;-87
2021/07/28 13:05:40;;;;;;;3.80;3.50;;;32.20;57.30;;;;;;5013450;28;20725;-87
2021/07/28 13:08:09;;;;;;;4.57;4.17;;;32.20;57.10;;;;;;5029851;28;20630;-90
2021/07/28 13:10:51;;;;;;;4.90;3.73;;;33.10;57.50;;;;;;5030334;28;20646;-88